KFTW/FTW METAR and TAF weather

Enter ICAO airport designator
Station Type Date Time Source
KFTW METAR 2020/04/05 05:53 UTC NOAA

KFTW 050553Z 00000KT 5SM BR FEW009 OVC021 07/07 A3005 RMK AO2 SLP178 T00720072 10072 20067 400720039 56004


Station Type Date Time Source
KFTW Decoded METAR 2020/04/05 05:53 UTC NOAA

FORT WORTH MEACHAM INTERNATIONAL ., TX, United States (KFTW) 32-50N 097-22W 214M
Apr 05, 2020 - 01:53 AM EDT / 2020.04.05 0553 UTC
Wind: Calm:0
Visibility: 5 mile(s):0
Sky conditions: overcast
Weather: mist
Temperature: 45.0 F (7.2 C)
Dew Point: 45.0 F (7.2 C)
Relative Humidity: 100%
Pressure (altimeter): 30.05 in. Hg (1017 hPa)
Pressure tendency: 0.01 inches (0.4 hPa) lower than three hours ago
ob: KFTW 050553Z 00000KT 5SM BR FEW009 OVC021 07/07 A3005 RMK AO2 SLP178 T00720072 10072 20067 400720039 56004
cycle: 6

Station Type Date Time Source
KFTW TAF 2020/04/05 06:24 UTC NOAA

TAF KFTW 050522Z 0506/0606 05004KT P6SM SCT009 OVC020
TEMPO 0506/0510 5SM -DZ BR OVC009
FM051000 07004KT 5SM BR OVC010
FM052000 15008KT P6SM BKN025
FM060200 14008KT P6SM BKN050

Example: see airport list